Time;durP1;ratioP1;P1;durP2;ratioP2;P2;SDS_P1;SDS_P2;PMS_P1;PMS_P2;Temp;Humidity;BMP_temperature;BMP_pressure;BME280_temperature;BME280_humidity;BME280_pressure;Samples;Min_cycle;Max_cycle;Signal;HPM_P1;HPM_P2
2021/12/15 00:01:59;;;;;;;43.72;20.23;;;;;;;6.85;90.61;101719.66;8544142;33;20132;-77
2021/12/15 00:07:04;;;;;;;43.33;19.45;;;;;;;6.77;91.17;101717.31;8521129;33;20148;-77
2021/12/15 00:12:09;;;;;;;40.95;19.42;;;;;;;6.77;90.83;101713.78;8546194;33;20428;-77
2021/12/15 00:17:13;;;;;;;40.67;17.85;;;;;;;6.80;90.38;101713.63;8520521;33;22013;-77
2021/12/15 00:22:17;;;;;;;36.33;16.67;;;;;;;6.85;90.83;101711.63;8546601;33;20154;-77
2021/12/15 00:27:20;;;;;;;36.33;16.70;;;;;;;6.70;91.16;101717.69;8519874;33;20425;-78
2021/12/15 00:32:24;;;;;;;33.70;16.17;;;;;;;6.61;91.76;101726.97;8520604;33;20434;-77
2021/12/15 00:37:29;;;;;;;35.40;16.13;;;;;;;6.58;91.83;101714.59;8520982;33;20459;-77
2021/12/15 00:42:32;;;;;;;42.45;17.90;;;;;;;6.94;90.42;101719.31;8542473;33;20163;-76
2021/12/15 00:47:36;;;;;;;42.97;17.50;;;;;;;6.80;91.16;101724.31;8547506;33;20454;-76
2021/12/15 00:52:44;;;;;;;42.17;18.88;;;;;;;6.74;90.82;101727.28;8531851;33;20144;-75
2021/12/15 00:57:48;;;;;;;50.90;22.30;;;;;;;6.89;90.75;101723.13;8551286;33;20223;-76
2021/12/15 01:02:53;;;;;;;41.35;20.77;;;;;;;6.80;91.22;101714.53;8545561;33;20499;-77
2021/12/15 01:07:58;;;;;;;37.20;18.27;;;;;;;6.77;91.53;101709.31;8531814;33;20149;-76
2021/12/15 01:23:45;;;;;;;27.98;13.40;;;;;;;6.82;91.34;101707.31;8510789;33;20437;-76
2021/12/15 01:28:48;;;;;;;35.25;15.30;;;;;;;6.87;91.38;101714.25;8476833;33;20443;-77
2021/12/15 01:33:52;;;;;;;35.50;16.73;;;;;;;6.78;91.84;101720.88;8518564;33;21055;-77
2021/12/15 01:38:58;;;;;;;33.88;16.85;;;;;;;6.83;91.43;101722.41;8508967;33;20609;-77
2021/12/15 01:49:38;;;;;;;34.40;15.35;;;;;;;6.91;91.24;101727.47;8569189;33;20144;-76
2021/12/15 01:54:50;;;;;;;39.50;17.70;;;;;;;6.81;92.12;101732.28;8570852;33;21481;-77
2021/12/15 01:59:57;;;;;;;34.58;14.05;;;;;;;6.74;92.21;101730.81;8569543;33;20449;-76
2021/12/15 02:05:00;;;;;;;36.50;18.63;;;;;;;6.88;91.65;101726.69;8536369;33;20216;-77
2021/12/15 02:10:07;;;;;;;35.35;17.88;;;;;;;6.85;91.70;101723.19;8555543;33;21273;-76
2021/12/15 02:15:35;;;;;;;36.22;17.52;;;;;;;6.90;91.54;101722.16;8563712;33;20459;-77
2021/12/15 02:20:44;;;;;;;33.13;16.52;;;;;;;6.89;91.52;101729.31;8566710;33;20186;-76
2021/12/15 02:25:49;;;;;;;34.25;16.88;;;;;;;6.81;91.90;101729.63;8591981;33;20431;-77
2021/12/15 02:30:58;;;;;;;37.75;17.10;;;;;;;6.81;91.50;101734.09;8544343;33;20159;-76
2021/12/15 02:41:36;;;;;;;37.17;18.45;;;;;;;6.91;91.30;101743.47;8413408;33;20659;-77
2021/12/15 02:46:41;;;;;;;36.58;18.25;;;;;;;6.95;90.73;101730.84;8525527;33;20183;-76
2021/12/15 02:51:48;;;;;;;44.03;19.55;;;;;;;7.06;90.57;101723.22;8547997;33;20653;-77
2021/12/15 02:56:54;;;;;;;43.90;19.20;;;;;;;6.97;90.77;101735.19;8549905;33;20414;-76
2021/12/15 03:02:04;;;;;;;49.83;22.67;;;;;;;6.86;91.18;101740.09;8525799;33;21123;-76
2021/12/15 03:07:16;;;;;;;51.63;23.35;;;;;;;6.97;91.10;101735.19;8548547;33;20434;-75
2021/12/15 03:17:44;;;;;;;54.33;26.45;;;;;;;6.79;91.46;101727.94;8523307;33;20504;-76
2021/12/15 03:22:50;;;;;;;58.58;27.02;;;;;;;6.83;91.99;101722.41;8524440;33;20156;-77
2021/12/15 03:38:40;;;;;;;63.08;26.02;;;;;;;6.53;93.13;101737.09;8516345;33;20541;-75
2021/12/15 03:43:43;;;;;;;71.35;27.05;;;;;;;6.54;92.21;101744.16;8564110;33;20184;-76
2021/12/15 03:48:46;;;;;;;71.65;28.77;;;;;;;6.50;92.04;101739.88;8561341;33;20964;-76
2021/12/15 03:53:51;;;;;;;56.40;23.80;;;;;;;6.35;91.51;101728.06;8549636;33;21486;-75
2021/12/15 03:58:56;;;;;;;69.50;32.03;;;;;;;6.58;91.21;101730.63;8546547;33;20548;-76
2021/12/15 04:03:59;;;;;;;75.40;33.33;;;;;;;6.57;91.25;101731.53;8523267;33;20675;-75
2021/12/15 04:09:08;;;;;;;59.92;24.80;;;;;;;6.42;91.67;101734.00;8548068;33;20260;-75
2021/12/15 04:14:19;;;;;;;66.32;26.42;;;;;;;6.51;91.24;101730.94;8547801;33;21136;-75
2021/12/15 04:19:22;;;;;;;60.17;22.35;;;;;;;6.53;90.87;101732.63;8547187;33;20250;-75
2021/12/15 04:24:28;;;;;;;59.05;24.92;;;;;;;6.65;90.25;101738.38;8523337;33;20492;-76
2021/12/15 04:29:31;;;;;;;63.22;28.02;;;;;;;6.80;89.90;101738.56;8499862;33;21035;-76
2021/12/15 04:34:34;;;;;;;63.17;27.83;;;;;;;6.79;89.56;101738.63;8490608;33;20405;-76
2021/12/15 04:39:39;;;;;;;63.25;24.42;;;;;;;6.53;90.52;101747.78;8492547;33;20458;-75
2021/12/15 04:44:42;;;;;;;62.30;26.50;;;;;;;6.67;90.03;101753.38;8505237;33;20193;-76
2021/12/15 04:49:50;;;;;;;63.78;25.73;;;;;;;6.68;90.02;101751.59;8496937;33;20497;-76
2021/12/15 04:54:55;;;;;;;61.40;25.33;;;;;;;6.62;90.20;101756.25;8496425;33;20220;-76
2021/12/15 04:59:59;;;;;;;54.22;23.90;;;;;;;6.53;90.65;101750.44;8489711;33;22091;-75
2021/12/15 05:05:02;;;;;;;53.92;22.38;;;;;;;6.37;91.28;101761.75;8485674;33;20258;-77
2021/12/15 05:10:09;;;;;;;54.22;22.73;;;;;;;6.73;89.89;101760.28;8486497;33;20407;-77
2021/12/15 05:15:13;;;;;;;63.58;26.98;;;;;;;6.71;89.49;101759.47;8541844;33;20152;-76
2021/12/15 05:20:16;;;;;;;71.03;28.88;;;;;;;6.70;89.38;101773.75;8539608;33;20252;-77
2021/12/15 05:25:21;;;;;;;71.35;28.10;;;;;;;6.77;89.33;101765.38;8539941;33;21029;-76
2021/12/15 05:30:25;;;;;;;63.95;28.27;;;;;;;6.79;89.17;101773.34;8545005;33;20191;-76
2021/12/15 05:35:28;;;;;;;67.45;27.92;;;;;;;6.50;90.42;101759.44;8545387;33;20215;-77
2021/12/15 05:40:33;;;;;;;67.55;28.70;;;;;;;6.52;90.87;101778.06;8523248;33;20187;-77
2021/12/15 05:45:39;;;;;;;66.80;28.75;;;;;;;6.47;90.55;101785.38;8548494;33;20421;-76
2021/12/15 05:50:45;;;;;;;71.32;26.83;;;;;;;6.55;90.61;101789.47;8521829;33;20412;-77
2021/12/15 05:55:50;;;;;;;68.10;28.77;;;;;;;6.68;90.19;101791.63;8527088;33;20435;-77
2021/12/15 06:00:53;;;;;;;64.20;30.15;;;;;;;6.65;90.20;101791.78;8550117;33;21178;-76
2021/12/15 06:05:56;;;;;;;59.40;25.92;;;;;;;6.85;89.27;101797.97;8549204;33;21910;-76
2021/12/15 06:11:01;;;;;;;65.40;29.48;;;;;;;6.63;90.48;101798.03;8549721;33;20421;-77
2021/12/15 06:16:06;;;;;;;63.83;29.60;;;;;;;6.67;90.09;101803.25;8550030;33;20648;-76
2021/12/15 06:21:10;;;;;;;66.00;27.63;;;;;;;6.53;90.28;101810.03;8519801;33;20140;-76
2021/12/15 06:26:16;;;;;;;57.83;25.02;;;;;;;6.45;90.86;101808.63;8544272;33;20615;-76
2021/12/15 06:31:19;;;;;;;64.70;27.20;;;;;;;6.55;91.26;101813.50;8518211;33;20137;-76
2021/12/15 06:36:22;;;;;;;58.78;24.75;;;;;;;6.46;91.70;101821.03;8541203;33;20144;-77
2021/12/15 06:41:27;;;;;;;63.70;27.05;;;;;;;6.66;90.84;101823.75;8543946;33;20188;-76
2021/12/15 06:57:34;;;;;;;60.47;25.45;;;;;;;6.62;90.70;101823.00;8539610;33;21290;-76
2021/12/15 07:02:38;;;;;;;44.70;20.20;;;;;;;6.57;91.06;101842.81;8511424;33;20432;-76
2021/12/15 07:07:45;;;;;;;51.67;20.40;;;;;;;6.44;92.34;101834.44;8539183;33;20155;-76
2021/12/15 07:12:50;;;;;;;53.30;25.75;;;;;;;6.54;91.81;101837.59;8541318;33;22437;-76
2021/12/15 07:18:01;;;;;;;51.33;22.25;;;;;;;6.53;92.05;101835.88;8473140;33;21117;-76
2021/12/15 07:23:09;;;;;;;37.53;15.77;;;;;;;6.48;91.69;101852.09;8482384;33;20598;-75
2021/12/15 07:28:15;;;;;;;52.72;23.40;;;;;;;6.67;91.88;101835.31;8478560;33;20536;-75
2021/12/15 07:33:18;;;;;;;49.00;23.25;;;;;;;6.66;91.13;101853.13;8483656;33;20410;-75
2021/12/15 07:38:21;;;;;;;47.20;22.15;;;;;;;6.59;91.94;101865.00;8480069;33;20145;-75
2021/12/15 07:43:26;;;;;;;49.53;21.90;;;;;;;6.62;91.92;101855.06;8494696;33;21079;-75
2021/12/15 07:48:34;;;;;;;46.20;21.05;;;;;;;6.53;92.59;101868.78;8515253;33;20633;-75
2021/12/15 07:53:40;;;;;;;46.45;21.63;;;;;;;6.71;91.74;101864.47;8511229;33;20473;-75
2021/12/15 07:58:45;;;;;;;48.17;21.35;;;;;;;6.62;91.97;101860.38;8500276;33;20500;-76
2021/12/15 08:03:54;;;;;;;49.22;21.88;;;;;;;6.72;92.61;101868.91;8509536;33;20153;-75
2021/12/15 08:08:58;;;;;;;47.28;21.63;;;;;;;6.70;92.53;101851.22;8480083;33;20606;-76
2021/12/15 08:14:02;;;;;;;38.33;17.98;;;;;;;6.74;91.61;101859.00;8452071;33;20143;-75
2021/12/15 08:19:07;;;;;;;47.75;19.52;;;;;;;6.71;91.73;101868.97;8527464;33;20436;-75
2021/12/15 08:24:10;;;;;;;43.15;19.75;;;;;;;6.88;91.58;101869.16;8516973;33;20844;-75
2021/12/15 08:29:15;;;;;;;41.50;20.17;;;;;;;6.91;91.45;101873.50;8464895;33;21438;-75
2021/12/15 08:34:18;;;;;;;43.08;20.08;;;;;;;6.77;92.06;101876.72;8488176;33;20271;-76
2021/12/15 08:39:22;;;;;;;39.97;18.27;;;;;;;6.95;91.05;101873.31;8482031;33;20469;-75
2021/12/15 08:44:27;;;;;;;39.83;17.98;;;;;;;6.97;91.03;101866.09;8483143;33;20472;-75
2021/12/15 08:49:30;;;;;;;34.08;16.77;;;;;;;6.87;91.76;101883.44;8456088;33;20133;-75
2021/12/15 08:54:34;;;;;;;32.90;15.38;;;;;;;6.87;91.93;101886.13;8480107;33;20188;-75
2021/12/15 08:59:38;;;;;;;30.77;14.13;;;;;;;6.85;91.65;101885.28;8536941;33;20881;-76
2021/12/15 09:04:41;;;;;;;37.72;17.73;;;;;;;6.89;91.79;101876.25;8540273;33;20410;-75
2021/12/15 09:09:44;;;;;;;33.58;15.13;;;;;;;6.91;91.09;101884.19;8543976;33;20544;-76
2021/12/15 09:14:49;;;;;;;39.35;18.40;;;;;;;6.99;91.62;101898.09;8542107;33;20418;-75
2021/12/15 09:19:52;;;;;;;40.40;18.17;;;;;;;7.01;91.59;101897.09;8540477;33;20602;-75
2021/12/15 09:24:55;;;;;;;34.28;15.70;;;;;;;6.83;92.36;101901.38;8535609;33;20593;-75
2021/12/15 09:29:59;;;;;;;35.60;17.40;;;;;;;6.94;91.60;101909.00;8541362;33;20438;-76
2021/12/15 09:35:05;;;;;;;40.20;16.90;;;;;;;6.87;91.99;101917.28;8522316;33;20413;-75
2021/12/15 09:40:12;;;;;;;37.55;17.98;;;;;;;6.95;91.56;101908.03;8545292;33;20815;-75
2021/12/15 09:45:29;;;;;;;34.22;17.58;;;;;;;7.05;91.52;101905.88;8521472;33;21021;-76
2021/12/15 10:06:53;;;;;;;41.88;18.65;;;;;;;6.96;91.65;101919.59;8545273;33;21158;-75
2021/12/15 10:12:19;;;;;;;43.92;21.05;;;;;;;6.98;91.79;101923.09;8546014;33;20197;-75
2021/12/15 10:17:31;;;;;;;45.83;21.33;;;;;;;6.98;91.32;101920.41;8524555;33;20233;-75
2021/12/15 10:22:39;;;;;;;44.75;19.48;;;;;;;6.89;91.68;101912.78;8542582;33;20152;-75
2021/12/15 10:27:48;;;;;;;45.85;18.40;;;;;;;6.93;91.62;101920.59;8545070;33;20447;-76
2021/12/15 10:32:58;;;;;;;41.00;18.90;;;;;;;7.09;91.10;101918.16;8548558;33;20188;-75
2021/12/15 10:38:20;;;;;;;41.85;19.05;;;;;;;7.30;89.71;101926.22;8544505;33;20331;-75
2021/12/15 10:43:27;;;;;;;46.75;21.40;;;;;;;7.41;89.71;101906.09;8541881;33;20628;-75
2021/12/15 10:48:36;;;;;;;37.30;17.92;;;;;;;7.35;89.06;101914.38;8513893;33;20420;-75
2021/12/15 10:53:40;;;;;;;49.15;21.85;;;;;;;7.53;88.41;101906.47;8513529;33;22007;-75
2021/12/15 10:58:48;;;;;;;40.92;19.33;;;;;;;7.34;88.94;101919.78;8541146;33;20457;-75
2021/12/15 11:03:53;;;;;;;45.58;20.15;;;;;;;7.53;88.35;101901.13;8536477;33;21048;-75
2021/12/15 11:09:13;;;;;;;41.90;19.70;;;;;;;7.63;87.71;101910.50;8536319;33;20229;-75
2021/12/15 11:14:25;;;;;;;44.00;19.83;;;;;;;7.82;86.96;101913.22;8516790;33;20502;-75
2021/12/15 11:19:57;;;;;;;41.15;19.33;;;;;;;7.41;87.73;101906.09;8504239;33;20151;-75
2021/12/15 11:25:02;;;;;;;35.50;16.55;;;;;;;7.36;87.97;101910.75;8507084;33;20176;-75
2021/12/15 11:30:09;;;;;;;35.38;17.00;;;;;;;7.48;87.16;101902.19;8485729;33;20471;-75
2021/12/15 11:35:19;;;;;;;42.25;18.58;;;;;;;7.75;86.72;101896.56;8494421;33;20426;-75
2021/12/15 11:40:36;;;;;;;44.10;18.55;;;;;;;7.63;86.82;101897.13;8506097;33;20155;-75
2021/12/15 11:45:42;;;;;;;43.00;20.77;;;;;;;7.91;86.07;101892.25;8484403;33;20735;-75
2021/12/15 11:50:51;;;;;;;45.65;20.42;;;;;;;7.86;85.85;101888.03;8503875;33;21266;-76
2021/12/15 11:55:54;;;;;;;38.47;16.35;;;;;;;7.68;85.84;101889.75;8499569;33;20557;-76
2021/12/15 12:00:57;;;;;;;38.28;19.42;;;;;;;7.95;85.45;101882.25;8491102;33;20241;-77
2021/12/15 12:06:03;;;;;;;42.72;20.08;;;;;;;7.77;85.53;101881.31;8490806;33;20654;-76
2021/12/15 12:11:15;;;;;;;39.70;18.13;;;;;;;7.71;85.63;101889.63;8489299;33;20410;-76
2021/12/15 12:16:22;;;;;;;38.45;18.30;;;;;;;7.84;85.58;101876.53;8483433;33;20190;-76
2021/12/15 12:21:27;;;;;;;37.75;18.08;;;;;;;7.86;85.71;101880.88;8482988;33;20415;-76
2021/12/15 12:26:31;;;;;;;39.65;19.40;;;;;;;7.87;85.46;101884.41;8482486;33;20176;-76
2021/12/15 12:31:35;;;;;;;42.13;18.88;;;;;;;7.81;84.98;101871.31;8482820;33;21147;-75
2021/12/15 12:36:39;;;;;;;43.13;19.30;;;;;;;7.89;84.92;101863.81;8480981;33;20230;-76
2021/12/15 12:41:46;;;;;;;42.00;20.10;;;;;;;7.92;84.84;101874.38;8480096;33;20416;-76
2021/12/15 12:46:58;;;;;;;42.53;19.98;;;;;;;7.99;84.72;101872.31;8480016;33;20465;-76
2021/12/15 13:03:01;;;;;;;42.47;21.95;;;;;;;7.67;85.86;101878.16;8506199;33;20191;-76
2021/12/15 13:08:10;;;;;;;50.30;22.73;;;;;;;7.84;85.46;101873.84;8514948;33;20305;-76
2021/12/15 13:13:14;;;;;;;49.70;23.15;;;;;;;7.69;85.99;101864.75;8537105;33;20431;-76
2021/12/15 13:18:17;;;;;;;46.03;21.27;;;;;;;7.76;85.75;101865.31;8537430;33;21007;-76
2021/12/15 13:23:44;;;;;;;48.05;21.83;;;;;;;7.75;86.14;101874.28;8542433;33;21036;-76
2021/12/15 13:28:49;;;;;;;52.97;23.50;;;;;;;7.68;86.65;101871.91;8558019;33;21216;-76
2021/12/15 13:33:57;;;;;;;52.20;22.83;;;;;;;7.89;85.91;101867.34;8561497;33;20255;-75
2021/12/15 13:39:08;;;;;;;53.45;23.02;;;;;;;7.92;85.40;101867.22;8561883;33;20480;-76
2021/12/15 13:44:24;;;;;;;60.28;25.05;;;;;;;7.81;85.72;101868.66;8524739;33;20447;-75
2021/12/15 13:49:33;;;;;;;51.80;23.30;;;;;;;7.97;85.02;101867.00;8545061;33;20410;-76
2021/12/15 13:55:26;;;;;;;51.47;21.80;;;;;;;7.97;85.00;101867.00;8557544;33;21360;-75
2021/12/15 14:00:37;;;;;;;49.15;21.48;;;;;;;7.73;85.50;101877.91;8507376;33;20453;-75
2021/12/15 14:05:45;;;;;;;50.95;21.92;;;;;;;7.60;87.11;101879.41;8511188;33;20160;-75
2021/12/15 14:11:03;;;;;;;53.97;23.05;;;;;;;7.42;88.19;101878.41;8493767;33;20141;-76
2021/12/15 14:16:06;;;;;;;47.83;21.67;;;;;;;7.41;88.56;101881.16;8482834;33;20238;-76
2021/12/15 14:21:14;;;;;;;55.00;22.58;;;;;;;7.38;88.68;101879.50;8491035;33;20440;-75
2021/12/15 14:26:23;;;;;;;58.33;26.42;;;;;;;7.30;88.74;101878.97;8485508;33;22012;-76
2021/12/15 14:31:30;;;;;;;48.60;23.38;;;;;;;7.32;88.33;101878.88;8485719;33;20250;-76
2021/12/15 14:36:37;;;;;;;55.85;22.80;;;;;;;7.46;87.60;101885.38;8501892;33;20129;-76
2021/12/15 14:41:47;;;;;;;54.38;22.90;;;;;;;7.55;86.80;101884.09;8548960;33;20433;-76
2021/12/15 14:46:55;;;;;;;48.17;21.70;;;;;;;7.58;86.89;101883.09;8572516;33;20939;-76
2021/12/15 14:52:02;;;;;;;52.85;22.65;;;;;;;7.61;86.49;101882.94;8547675;33;20155;-76
2021/12/15 14:57:10;;;;;;;50.67;21.85;;;;;;;7.65;86.45;101879.19;8543551;33;20180;-76
2021/12/15 15:02:17;;;;;;;42.93;21.37;;;;;;;7.68;85.88;101882.59;8540329;33;20527;-76
2021/12/15 15:07:24;;;;;;;49.05;21.63;;;;;;;7.63;85.86;101884.63;8534069;33;20695;-76
2021/12/15 15:12:31;;;;;;;49.65;22.25;;;;;;;7.52;86.21;101894.94;8530766;33;20154;-76
2021/12/15 15:17:47;;;;;;;51.53;22.60;;;;;;;7.53;86.14;101898.47;8510052;33;20436;-77
2021/12/15 15:22:55;;;;;;;47.58;21.02;;;;;;;7.38;86.91;101916.06;8507685;33;21048;-76
2021/12/15 15:28:05;;;;;;;54.72;23.60;;;;;;;7.36;86.51;101917.91;8533850;33;20689;-77
2021/12/15 15:33:12;;;;;;;54.40;21.85;;;;;;;7.62;85.54;101919.44;8535468;33;20152;-76
2021/12/15 15:38:20;;;;;;;50.28;22.50;;;;;;;7.57;85.68;101919.66;8509938;33;21924;-76
2021/12/15 15:43:34;;;;;;;46.10;20.17;;;;;;;7.56;85.45;101925.94;8534160;33;20521;-76
2021/12/15 15:48:42;;;;;;;47.78;21.20;;;;;;;7.64;85.21;101931.81;8533798;33;20423;-76
2021/12/15 15:53:51;;;;;;;52.75;22.42;;;;;;;7.67;85.70;101944.19;8537142;33;20183;-76
2021/12/15 15:59:06;;;;;;;45.38;22.30;;;;;;;7.68;85.13;101946.81;8537250;33;20684;-76
2021/12/15 16:04:15;;;;;;;52.10;22.48;;;;;;;7.52;85.43;101956.44;8516663;33;20408;-77
2021/12/15 16:09:26;;;;;;;49.72;20.70;;;;;;;7.57;85.70;101964.22;8545320;33;20430;-75
2021/12/15 16:14:31;;;;;;;51.58;22.45;;;;;;;7.67;84.93;101960.22;8519945;33;20451;-76
2021/12/15 16:19:39;;;;;;;49.10;21.50;;;;;;;7.72;84.68;101975.13;8555586;33;20213;-77
2021/12/15 16:24:42;;;;;;;49.78;21.25;;;;;;;7.75;84.53;101962.56;8551638;33;20666;-76
2021/12/15 16:29:46;;;;;;;45.08;20.10;;;;;;;7.54;84.98;101964.38;8521150;33;20221;-76
2021/12/15 16:34:52;;;;;;;54.63;22.55;;;;;;;7.57;85.13;101959.78;8540190;33;20457;-75
2021/12/15 16:39:57;;;;;;;51.28;21.33;;;;;;;7.68;84.56;101973.56;8512361;33;20450;-75
2021/12/15 16:45:01;;;;;;;47.45;23.60;;;;;;;7.72;84.71;101972.47;8513659;33;20613;-76
2021/12/15 16:50:08;;;;;;;51.25;22.05;;;;;;;7.61;85.35;101973.88;8533596;33;20502;-76
2021/12/15 16:55:16;;;;;;;57.75;22.67;;;;;;;7.52;85.61;101976.97;8559734;33;20912;-77
2021/12/15 17:00:33;;;;;;;54.83;24.63;;;;;;;7.69;85.23;101980.63;8550192;33;20647;-77
2021/12/15 17:05:41;;;;;;;55.15;25.13;;;;;;;7.41;86.34;101988.13;8544520;33;21460;-76
2021/12/15 17:10:50;;;;;;;57.00;24.75;;;;;;;7.64;85.41;101990.66;8518925;33;20932;-76
2021/12/15 17:15:59;;;;;;;59.25;25.98;;;;;;;7.58;85.35;101988.25;8557287;33;20408;-76
2021/12/15 17:21:17;;;;;;;61.97;27.88;;;;;;;7.64;84.78;101997.81;8550305;33;20414;-77
2021/12/15 17:26:28;;;;;;;54.75;23.92;;;;;;;7.58;83.91;101998.94;8584949;33;20624;-77
2021/12/15 17:31:35;;;;;;;54.17;23.25;;;;;;;7.45;84.97;102008.44;8581206;33;20745;-76
2021/12/15 17:36:41;;;;;;;58.20;24.02;;;;;;;7.66;83.67;102003.97;8583594;33;20427;-77
2021/12/15 17:41:47;;;;;;;50.42;23.75;;;;;;;7.73;83.33;102010.78;8590478;33;20191;-77
2021/12/15 17:47:10;;;;;;;46.17;22.55;;;;;;;7.68;83.14;102023.50;8560118;33;20225;-77
2021/12/15 17:52:22;;;;;;;49.00;21.98;;;;;;;7.54;83.79;102017.84;8511926;33;20230;-76
2021/12/15 17:57:30;;;;;;;46.25;22.20;;;;;;;7.52;83.97;102015.25;8540742;33;20183;-77
2021/12/15 18:02:36;;;;;;;51.45;23.80;;;;;;;7.71;83.29;102028.72;8566122;33;20514;-76
2021/12/15 18:07:40;;;;;;;46.25;22.02;;;;;;;7.50;83.83;102025.16;8571118;33;21150;-76
2021/12/15 18:12:45;;;;;;;52.22;23.60;;;;;;;7.53;84.07;102025.00;8546197;33;20183;-76
2021/12/15 18:17:50;;;;;;;43.80;21.02;;;;;;;7.39;83.87;102025.59;8570078;33;20139;-77
2021/12/15 18:22:53;;;;;;;48.08;21.65;;;;;;;7.62;83.75;102029.09;8544085;33;20601;-76
2021/12/15 18:27:59;;;;;;;48.22;22.95;;;;;;;7.53;83.23;102033.03;8568474;33;20511;-76
2021/12/15 18:33:08;;;;;;;42.78;21.70;;;;;;;7.65;82.02;102026.28;8520431;33;20429;-76
2021/12/15 18:38:13;;;;;;;49.70;21.83;;;;;;;7.72;81.65;102028.63;8538761;33;22621;-77
2021/12/15 18:43:16;;;;;;;43.80;20.27;;;;;;;7.68;81.16;102034.22;8539909;33;20440;-76
2021/12/15 18:48:21;;;;;;;45.03;19.83;;;;;;;7.43;81.90;102039.69;8521385;33;20518;-77
2021/12/15 18:53:25;;;;;;;40.90;20.42;;;;;;;7.47;82.32;102034.16;8529092;33;20168;-77
2021/12/15 18:58:32;;;;;;;48.35;20.40;;;;;;;7.47;81.86;102031.50;8521572;33;20233;-76
2021/12/15 19:03:37;;;;;;;40.60;19.15;;;;;;;7.25;82.12;102031.50;8540396;33;20417;-76
2021/12/15 19:08:41;;;;;;;38.67;18.15;;;;;;;7.38;82.00;102047.94;8503342;33;20999;-76
2021/12/15 19:13:45;;;;;;;45.25;19.25;;;;;;;7.32;82.24;102048.16;8491823;33;20600;-77
2021/12/15 19:18:51;;;;;;;43.83;19.20;;;;;;;7.37;82.08;102070.22;8493097;33;21513;-76
2021/12/15 19:23:55;;;;;;;44.65;21.40;;;;;;;7.41;82.21;102074.53;8492309;33;20490;-75
2021/12/15 19:29:00;;;;;;;41.95;18.40;;;;;;;7.47;82.00;102084.97;8463221;33;20436;-76
2021/12/15 19:34:05;;;;;;;38.10;19.73;;;;;;;7.64;81.53;102078.91;8492366;33;20496;-76
2021/12/15 19:39:14;;;;;;;48.22;21.35;;;;;;;7.63;82.00;102082.53;8498192;33;20426;-76
2021/12/15 19:44:21;;;;;;;44.42;23.13;;;;;;;7.63;82.16;102076.31;8507053;33;20284;-76
2021/12/15 19:49:28;;;;;;;45.50;22.08;;;;;;;7.61;82.83;102070.16;8554753;33;21053;-76
2021/12/15 19:54:32;;;;;;;52.80;23.42;;;;;;;7.70;82.54;102073.31;8569505;33;20469;-76
2021/12/15 19:59:36;;;;;;;50.67;20.95;;;;;;;7.29;84.02;102072.34;8536930;33;20401;-76
2021/12/15 20:04:40;;;;;;;52.22;24.52;;;;;;;7.39;83.84;102079.06;8526431;33;20189;-76
2021/12/15 20:09:49;;;;;;;47.58;21.70;;;;;;;7.53;82.60;102085.66;8546563;33;20420;-75
2021/12/15 20:14:53;;;;;;;49.00;22.63;;;;;;;7.63;82.13;102077.19;8543239;33;20468;-76
2021/12/15 20:19:58;;;;;;;50.33;22.42;;;;;;;7.75;81.74;102082.97;8540885;33;21059;-76
2021/12/15 20:25:02;;;;;;;42.03;22.85;;;;;;;7.75;81.42;102078.47;8541208;33;21143;-76
2021/12/15 20:30:09;;;;;;;48.55;21.63;;;;;;;7.60;81.39;102077.31;8540483;33;20251;-76
2021/12/15 20:35:17;;;;;;;48.63;22.08;;;;;;;7.70;81.34;102085.81;8543577;33;20409;-77
2021/12/15 20:40:21;;;;;;;48.83;21.23;;;;;;;7.70;81.28;102073.31;8541256;33;20911;-76
2021/12/15 20:45:26;;;;;;;46.30;21.63;;;;;;;7.68;81.25;102082.34;8539986;33;20748;-76
2021/12/15 20:50:32;;;;;;;46.17;22.73;;;;;;;7.66;81.82;102093.13;8549469;33;20486;-76
2021/12/15 20:55:35;;;;;;;54.60;23.08;;;;;;;7.68;81.75;102099.28;8535093;33;21024;-76
2021/12/15 21:00:42;;;;;;;48.00;22.33;;;;;;;7.56;82.05;102096.22;8553518;33;20309;-76
2021/12/15 21:05:51;;;;;;;44.88;22.88;;;;;;;7.44;82.50;102101.16;8525479;33;20431;-76
2021/12/15 21:10:59;;;;;;;45.05;22.10;;;;;;;7.53;82.00;102091.88;8548085;33;20215;-76
2021/12/15 21:16:02;;;;;;;48.35;20.45;;;;;;;7.47;81.86;102089.47;8548363;33;20191;-76
2021/12/15 21:21:08;;;;;;;46.53;20.95;;;;;;;7.44;82.49;102097.59;8548233;33;21520;-76
2021/12/15 21:26:16;;;;;;;43.75;20.70;;;;;;;7.40;82.41;102101.31;8552146;33;20207;-77
2021/12/15 21:31:21;;;;;;;50.67;22.40;;;;;;;7.28;83.24;102098.22;8550750;33;20648;-76
2021/12/15 21:36:26;;;;;;;49.92;23.55;;;;;;;7.39;83.08;102100.47;8552439;33;20128;-75
2021/12/15 21:41:30;;;;;;;54.22;24.20;;;;;;;7.32;83.59;102109.66;8552221;33;20436;-76
2021/12/15 21:46:38;;;;;;;58.72;24.95;;;;;;;7.37;83.65;102105.00;8539221;33;20156;-77
2021/12/15 21:51:44;;;;;;;53.45;23.77;;;;;;;7.46;83.46;102109.09;8542101;33;20172;-78
2021/12/15 21:56:49;;;;;;;49.08;24.58;;;;;;;7.39;83.69;102111.16;8567318;33;21513;-76
2021/12/15 22:01:53;;;;;;;58.17;24.60;;;;;;;7.37;83.92;102118.34;8543596;33;20172;-76
2021/12/15 22:06:59;;;;;;;60.50;25.33;;;;;;;7.42;83.77;102111.03;8571535;33;20715;-77
2021/12/15 22:12:03;;;;;;;52.45;24.83;;;;;;;7.50;83.13;102108.03;8572382;33;20152;-76
2021/12/15 22:17:06;;;;;;;49.80;24.35;;;;;;;7.61;82.67;102111.16;8543480;33;20520;-77
2021/12/15 22:22:10;;;;;;;55.97;24.88;;;;;;;7.52;83.19;102111.53;8551937;33;20258;-76
2021/12/15 22:27:14;;;;;;;54.92;24.98;;;;;;;7.50;82.78;102119.59;8601144;33;20471;-77
2021/12/15 22:32:21;;;;;;;55.60;26.02;;;;;;;7.51;82.42;102117.81;8568033;33;20190;-76
2021/12/15 22:37:26;;;;;;;51.63;25.42;;;;;;;7.38;82.85;102120.13;8554178;33;20415;-75
2021/12/15 22:42:29;;;;;;;56.15;25.33;;;;;;;7.17;84.08;102129.00;8532996;33;20234;-77
2021/12/15 22:47:32;;;;;;;53.42;25.92;;;;;;;7.26;83.71;102134.81;8536590;33;20195;-75
2021/12/15 22:52:37;;;;;;;56.28;25.55;;;;;;;7.08;84.09;102140.03;8550705;33;20404;-77
2021/12/15 22:57:41;;;;;;;56.50;25.92;;;;;;;6.99;84.56;102154.59;8549004;33;20148;-77
2021/12/15 23:02:44;;;;;;;55.67;25.50;;;;;;;7.01;84.37;102152.75;8524694;33;20164;-75
2021/12/15 23:07:52;;;;;;;55.67;25.02;;;;;;;7.05;84.48;102159.75;8549180;33;20445;-76
2021/12/15 23:12:55;;;;;;;60.22;26.42;;;;;;;7.22;83.65;102165.28;8550327;33;20140;-76
2021/12/15 23:18:07;;;;;;;59.67;28.02;;;;;;;7.12;84.50;102171.06;8564219;33;21748;-75
2021/12/15 23:23:11;;;;;;;52.85;24.13;;;;;;;7.21;83.77;102170.69;8536822;33;20335;-75
2021/12/15 23:28:22;;;;;;;58.47;26.70;;;;;;;7.10;84.88;102175.56;8557812;33;20474;-75
2021/12/15 23:33:25;;;;;;;56.75;26.00;;;;;;;7.23;84.06;102180.38;8547968;33;20912;-75
2021/12/15 23:38:39;;;;;;;62.78;27.80;;;;;;;7.29;83.82;102171.25;8548086;33;20419;-74
2021/12/15 23:54:47;;;;;;;62.33;27.55;;;;;;;7.27;84.01;102163.31;8273810;34;20186;-75
